sensor_id;sensor_type;location;lat;lon;timestamp;pressure;altitude;pressure_sealevel;temperature;humidity
19676;BME280;39539;52.202;9.876;2023-04-06T00:01:29;101258.03;;;-0.38;94.26
19676;BME280;39539;52.202;9.876;2023-04-06T00:03:55;101259.00;;;-0.39;94.32
19676;BME280;39539;52.202;9.876;2023-04-06T00:06:20;101256.97;;;-0.35;94.11
19676;BME280;39539;52.202;9.876;2023-04-06T00:08:45;101251.50;;;-0.32;94.32
19676;BME280;39539;52.202;9.876;2023-04-06T00:11:11;101254.09;;;-0.32;94.11
19676;BME280;39539;52.202;9.876;2023-04-06T00:13:37;101254.34;;;-0.35;94.63
19676;BME280;39539;52.202;9.876;2023-04-06T00:16:02;101254.63;;;-0.50;95.17
19676;BME280;39539;52.202;9.876;2023-04-06T00:18:30;101240.16;;;-0.65;96.02
19676;BME280;39539;52.202;9.876;2023-04-06T00:20:55;101242.88;;;-0.66;96.60
19676;BME280;39539;52.202;9.876;2023-04-06T00:23:21;101229.72;;;-0.65;96.34
19676;BME280;39539;52.202;9.876;2023-04-06T00:25:46;101246.31;;;-0.55;96.28
19676;BME280;39539;52.202;9.876;2023-04-06T00:28:12;101241.56;;;-0.61;95.96
19676;BME280;39539;52.202;9.876;2023-04-06T00:30:37;101249.16;;;-0.58;96.37
19676;BME280;39539;52.202;9.876;2023-04-06T00:33:03;101243.22;;;-0.60;96.42
19676;BME280;39539;52.202;9.876;2023-04-06T00:35:28;101234.00;;;-0.75;97.96
19676;BME280;39539;52.202;9.876;2023-04-06T00:37:53;101234.81;;;-0.75;97.88
19676;BME280;39539;52.202;9.876;2023-04-06T00:40:19;101240.28;;;-0.78;98.50
19676;BME280;39539;52.202;9.876;2023-04-06T00:42:44;101226.50;;;-0.91;98.77
19676;BME280;39539;52.202;9.876;2023-04-06T00:45:10;101222.25;;;-0.92;99.05
19676;BME280;39539;52.202;9.876;2023-04-06T00:47:35;101230.66;;;-1.00;99.48
19676;BME280;39539;52.202;9.876;2023-04-06T00:50:01;101225.69;;;-1.03;99.61
19676;BME280;39539;52.202;9.876;2023-04-06T00:52:27;101236.25;;;-0.93;100.00
19676;BME280;39539;52.202;9.876;2023-04-06T00:54:53;101236.13;;;-0.80;99.66
19676;BME280;39539;52.202;9.876;2023-04-06T00:57:18;101240.84;;;-0.74;99.76
19676;BME280;39539;52.202;9.876;2023-04-06T00:59:44;101235.28;;;-0.70;99.82
19676;BME280;39539;52.202;9.876;2023-04-06T01:02:10;101236.34;;;-0.61;98.98
19676;BME280;39539;52.202;9.876;2023-04-06T01:04:36;101231.94;;;-0.60;97.90
19676;BME280;39539;52.202;9.876;2023-04-06T01:07:01;101217.34;;;-0.63;96.02
19676;BME280;39539;52.202;9.876;2023-04-06T01:09:30;101223.88;;;-0.57;95.42
19676;BME280;39539;52.202;9.876;2023-04-06T01:11:56;101217.59;;;-0.55;95.07
19676;BME280;39539;52.202;9.876;2023-04-06T01:14:23;101218.78;;;-0.59;94.89
19676;BME280;39539;52.202;9.876;2023-04-06T01:16:48;101220.69;;;-0.61;94.73
19676;BME280;39539;52.202;9.876;2023-04-06T01:19:14;101207.38;;;-0.58;94.51
19676;BME280;39539;52.202;9.876;2023-04-06T01:21:40;101209.88;;;-0.56;93.96
19676;BME280;39539;52.202;9.876;2023-04-06T01:24:07;101198.72;;;-0.58;93.53
19676;BME280;39539;52.202;9.876;2023-04-06T01:26:33;101198.84;;;-0.60;93.83
19676;BME280;39539;52.202;9.876;2023-04-06T01:29:00;101206.91;;;-0.63;94.42
19676;BME280;39539;52.202;9.876;2023-04-06T01:31:25;101198.41;;;-0.65;95.15
19676;BME280;39539;52.202;9.876;2023-04-06T01:33:53;101200.75;;;-0.62;96.15
19676;BME280;39539;52.202;9.876;2023-04-06T01:36:20;101207.06;;;-0.76;96.27
19676;BME280;39539;52.202;9.876;2023-04-06T01:38:46;101198.84;;;-0.82;97.01
19676;BME280;39539;52.202;9.876;2023-04-06T01:41:11;101190.22;;;-0.94;97.69
19676;BME280;39539;52.202;9.876;2023-04-06T01:43:37;101184.19;;;-1.06;98.95
19676;BME280;39539;52.202;9.876;2023-04-06T01:46:03;101192.72;;;-1.15;99.53
19676;BME280;39539;52.202;9.876;2023-04-06T01:48:28;101184.53;;;-1.22;100.00
19676;BME280;39539;52.202;9.876;2023-04-06T01:50:54;101195.31;;;-1.15;100.00
19676;BME280;39539;52.202;9.876;2023-04-06T01:53:20;101196.72;;;-1.22;100.00
19676;BME280;39539;52.202;9.876;2023-04-06T01:55:46;101186.41;;;-1.35;100.00
19676;BME280;39539;52.202;9.876;2023-04-06T01:58:12;101179.75;;;-1.50;100.00
19676;BME280;39539;52.202;9.876;2023-04-06T02:00:37;101192.94;;;-1.41;100.00
19676;BME280;39539;52.202;9.876;2023-04-06T02:03:03;101190.56;;;-1.32;100.00
19676;BME280;39539;52.202;9.876;2023-04-06T02:05:30;101196.13;;;-1.26;100.00
19676;BME280;39539;52.202;9.876;2023-04-06T02:07:56;101191.63;;;-1.35;100.00
19676;BME280;39539;52.202;9.876;2023-04-06T02:10:22;101197.09;;;-1.27;100.00
19676;BME280;39539;52.202;9.876;2023-04-06T02:12:48;101190.81;;;-1.36;100.00
19676;BME280;39539;52.202;9.876;2023-04-06T02:15:15;101194.34;;;-1.37;100.00
19676;BME280;39539;52.202;9.876;2023-04-06T02:17:41;101190.19;;;-1.39;100.00
19676;BME280;39539;52.202;9.876;2023-04-06T02:20:08;101194.09;;;-1.45;100.00
19676;BME280;39539;52.202;9.876;2023-04-06T02:22:37;101187.47;;;-1.49;100.00
19676;BME280;39539;52.202;9.876;2023-04-06T02:25:02;101190.28;;;-1.52;100.00
19676;BME280;39539;52.202;9.876;2023-04-06T02:27:28;101182.19;;;-1.71;100.00
19676;BME280;39539;52.202;9.876;2023-04-06T02:29:53;101189.44;;;-1.64;100.00
19676;BME280;39539;52.202;9.876;2023-04-06T02:32:19;101187.16;;;-1.68;100.00
19676;BME280;39539;52.202;9.876;2023-04-06T02:34:45;101175.31;;;-1.84;100.00
19676;BME280;39539;52.202;9.876;2023-04-06T02:37:10;101177.09;;;-1.73;100.00
19676;BME280;39539;52.202;9.876;2023-04-06T02:39:36;101193.56;;;-1.72;100.00
19676;BME280;39539;52.202;9.876;2023-04-06T02:42:01;101182.38;;;-1.86;100.00
19676;BME280;39539;52.202;9.876;2023-04-06T02:44:26;101179.78;;;-1.86;100.00
19676;BME280;39539;52.202;9.876;2023-04-06T02:46:52;101169.00;;;-1.92;100.00
19676;BME280;39539;52.202;9.876;2023-04-06T02:49:17;101182.38;;;-1.86;100.00
19676;BME280;39539;52.202;9.876;2023-04-06T02:51:43;101166.16;;;-1.89;100.00
19676;BME280;39539;52.202;9.876;2023-04-06T02:54:08;101177.91;;;-1.84;100.00
19676;BME280;39539;52.202;9.876;2023-04-06T02:56:35;101180.53;;;-1.72;100.00
19676;BME280;39539;52.202;9.876;2023-04-06T02:59:01;101164.16;;;-1.86;100.00
19676;BME280;39539;52.202;9.876;2023-04-06T03:01:26;101180.00;;;-1.89;100.00
19676;BME280;39539;52.202;9.876;2023-04-06T03:03:52;101177.88;;;-1.95;100.00
19676;BME280;39539;52.202;9.876;2023-04-06T03:06:17;101149.88;;;-2.04;100.00
19676;BME280;39539;52.202;9.876;2023-04-06T03:08:42;101163.38;;;-1.99;100.00
19676;BME280;39539;52.202;9.876;2023-04-06T03:11:08;101163.38;;;-1.99;100.00
19676;BME280;39539;52.202;9.876;2023-04-06T03:13:33;101164.84;;;-1.95;100.00
19676;BME280;39539;52.202;9.876;2023-04-06T03:15:59;101172.19;;;-1.89;100.00
19676;BME280;39539;52.202;9.876;2023-04-06T03:18:25;101156.75;;;-2.03;100.00
19676;BME280;39539;52.202;9.876;2023-04-06T03:20:51;101173.13;;;-1.90;100.00
19676;BME280;39539;52.202;9.876;2023-04-06T03:23:19;101159.63;;;-1.95;100.00
19676;BME280;39539;52.202;9.876;2023-04-06T03:25:46;101179.06;;;-1.88;100.00
19676;BME280;39539;52.202;9.876;2023-04-06T03:28:12;101172.16;;;-2.00;100.00
19676;BME280;39539;52.202;9.876;2023-04-06T03:30:37;101167.69;;;-1.98;100.00
19676;BME280;39539;52.202;9.876;2023-04-06T03:33:03;101172.16;;;-2.00;100.00
19676;BME280;39539;52.202;9.876;2023-04-06T03:35:28;101169.78;;;-2.03;100.00
19676;BME280;39539;52.202;9.876;2023-04-06T03:37:54;101172.25;;;-2.01;100.00
19676;BME280;39539;52.202;9.876;2023-04-06T03:40:20;101168.09;;;-2.04;100.00
19676;BME280;39539;52.202;9.876;2023-04-06T03:42:45;101168.38;;;-1.96;100.00
19676;BME280;39539;52.202;9.876;2023-04-06T03:45:11;101172.44;;;-1.92;100.00
19676;BME280;39539;52.202;9.876;2023-04-06T03:47:38;101174.81;;;-1.89;100.00
19676;BME280;39539;52.202;9.876;2023-04-06T03:50:03;101174.06;;;-1.91;100.00
19676;BME280;39539;52.202;9.876;2023-04-06T03:52:29;101179.56;;;-1.83;100.00
19676;BME280;39539;52.202;9.876;2023-04-06T03:54:54;101182.97;;;-1.82;100.00
19676;BME280;39539;52.202;9.876;2023-04-06T03:57:20;101172.69;;;-1.84;100.00
19676;BME280;39539;52.202;9.876;2023-04-06T03:59:45;101165.44;;;-1.91;100.00
19676;BME280;39539;52.202;9.876;2023-04-06T04:02:11;101170.88;;;-1.94;100.00
19676;BME280;39539;52.202;9.876;2023-04-06T04:04:37;101174.81;;;-1.89;100.00
19676;BME280;39539;52.202;9.876;2023-04-06T04:07:03;101164.38;;;-1.89;100.00
19676;BME280;39539;52.202;9.876;2023-04-06T04:09:28;101177.06;;;-1.84;100.00
19676;BME280;39539;52.202;9.876;2023-04-06T04:11:54;101182.28;;;-1.73;100.00
19676;BME280;39539;52.202;9.876;2023-04-06T04:14:22;101184.69;;;-1.70;100.00
19676;BME280;39539;52.202;9.876;2023-04-06T04:16:48;101181.00;;;-1.67;100.00
19676;BME280;39539;52.202;9.876;2023-04-06T04:19:13;101180.09;;;-1.66;100.00
19676;BME280;39539;52.202;9.876;2023-04-06T04:21:43;101189.91;;;-1.59;100.00
19676;BME280;39539;52.202;9.876;2023-04-06T04:24:12;101190.06;;;-1.49;100.00
19676;BME280;39539;52.202;9.876;2023-04-06T04:26:38;101196.00;;;-1.47;100.00
19676;BME280;39539;52.202;9.876;2023-04-06T04:29:04;101182.25;;;-1.49;100.00
19676;BME280;39539;52.202;9.876;2023-04-06T04:31:30;101182.97;;;-1.47;100.00
19676;BME280;39539;52.202;9.876;2023-04-06T04:33:55;101174.44;;;-1.49;100.00
19676;BME280;39539;52.202;9.876;2023-04-06T04:36:22;101177.03;;;-1.49;100.00
19676;BME280;39539;52.202;9.876;2023-04-06T04:38:49;101170.38;;;-1.64;100.00
19676;BME280;39539;52.202;9.876;2023-04-06T04:41:15;101157.31;;;-1.75;100.00
19676;BME280;39539;52.202;9.876;2023-04-06T04:43:40;101179.09;;;-1.76;100.00
19676;BME280;39539;52.202;9.876;2023-04-06T04:46:06;101162.25;;;-1.95;100.00
19676;BME280;39539;52.202;9.876;2023-04-06T04:48:32;101162.78;;;-2.03;100.00
19676;BME280;39539;52.202;9.876;2023-04-06T04:50:57;101157.22;;;-2.09;100.00
19676;BME280;39539;52.202;9.876;2023-04-06T04:53:22;101165.97;;;-2.10;100.00
19676;BME280;39539;52.202;9.876;2023-04-06T04:55:48;101168.69;;;-2.12;100.00
19676;BME280;39539;52.202;9.876;2023-04-06T04:58:13;101148.38;;;-2.31;100.00
19676;BME280;39539;52.202;9.876;2023-04-06T05:00:45;101184.19;;;-2.10;100.00
19676;BME280;39539;52.202;9.876;2023-04-06T05:03:20;101182.81;;;-2.03;100.00
19676;BME280;39539;52.202;9.876;2023-04-06T05:05:46;101186.88;;;-1.88;100.00
19676;BME280;39539;52.202;9.876;2023-04-06T05:08:12;101185.59;;;-1.82;100.00
19676;BME280;39539;52.202;9.876;2023-04-06T05:10:37;101179.09;;;-1.76;100.00
19676;BME280;39539;52.202;9.876;2023-04-06T05:13:03;101176.97;;;-1.71;100.00
19676;BME280;39539;52.202;9.876;2023-04-06T05:15:28;101184.13;;;-1.51;100.00
19676;BME280;39539;52.202;9.876;2023-04-06T05:17:53;101172.06;;;-1.52;100.00
19676;BME280;39539;52.202;9.876;2023-04-06T05:20:19;101188.06;;;-1.23;100.00
19676;BME280;39539;52.202;9.876;2023-04-06T05:22:45;101194.00;;;-1.21;99.55
19676;BME280;39539;52.202;9.876;2023-04-06T05:25:10;101191.53;;;-1.11;99.42
19676;BME280;39539;52.202;9.876;2023-04-06T05:27:35;101193.19;;;-0.99;99.51
19676;BME280;39539;52.202;9.876;2023-04-06T05:30:01;101192.34;;;-0.88;99.63
19676;BME280;39539;52.202;9.876;2023-04-06T05:32:27;101185.38;;;-0.87;99.25
19676;BME280;39539;52.202;9.876;2023-04-06T05:34:53;101172.56;;;-0.91;99.37
19676;BME280;39539;52.202;9.876;2023-04-06T05:37:18;101183.09;;;-0.92;99.83
19676;BME280;39539;52.202;9.876;2023-04-06T05:39:43;101182.03;;;-0.78;99.27
19676;BME280;39539;52.202;9.876;2023-04-06T05:42:09;101180.72;;;-0.73;98.93
19676;BME280;39539;52.202;9.876;2023-04-06T05:44:37;101187.97;;;-0.65;98.63
19676;BME280;39539;52.202;9.876;2023-04-06T05:47:02;101167.28;;;-0.68;98.58
19676;BME280;39539;52.202;9.876;2023-04-06T05:49:28;101168.00;;;-0.66;98.57
19676;BME280;39539;52.202;9.876;2023-04-06T05:51:53;101182.69;;;-0.42;97.78
19676;BME280;39539;52.202;9.876;2023-04-06T05:54:18;101186.31;;;-0.22;97.25
19676;BME280;39539;52.202;9.876;2023-04-06T05:56:45;101179.47;;;-0.03;96.62
19676;BME280;39539;52.202;9.876;2023-04-06T05:59:13;101201.81;;;0.95;98.61
19676;BME280;39539;52.202;9.876;2023-04-06T06:01:42;101233.34;;;4.10;82.04
19676;BME280;39539;52.202;9.876;2023-04-06T06:04:07;101133.53;;;7.07;64.21
19676;BME280;39539;52.202;9.876;2023-04-06T06:06:33;101080.31;;;10.42;55.13
19676;BME280;39539;52.202;9.876;2023-04-06T06:08:58;101067.59;;;13.36;48.42
19676;BME280;39539;52.202;9.876;2023-04-06T06:11:26;101059.34;;;15.35;42.69
19676;BME280;39539;52.202;9.876;2023-04-06T06:13:51;101053.78;;;17.06;40.01
19676;BME280;39539;52.202;9.876;2023-04-06T06:16:18;101038.63;;;17.63;39.03
19676;BME280;39539;52.202;9.876;2023-04-06T06:18:44;101034.91;;;18.80;37.38
19676;BME280;39539;52.202;9.876;2023-04-06T06:21:10;100995.09;;;19.84;33.91
19676;BME280;39539;52.202;9.876;2023-04-06T06:23:37;100995.84;;;20.95;33.60
19676;BME280;39539;52.202;9.876;2023-04-06T06:26:03;100985.25;;;20.73;34.21
19676;BME280;39539;52.202;9.876;2023-04-06T06:28:30;100984.50;;;21.80;31.50
19676;BME280;39539;52.202;9.876;2023-04-06T06:30:56;100991.44;;;22.12;31.61
19676;BME280;39539;52.202;9.876;2023-04-06T06:33:23;100994.28;;;22.51;31.61
19676;BME280;39539;52.202;9.876;2023-04-06T06:35:49;100990.75;;;22.51;31.01
19676;BME280;39539;52.202;9.876;2023-04-06T06:38:16;100992.22;;;23.22;30.48
19676;BME280;39539;52.202;9.876;2023-04-06T06:40:42;100977.63;;;22.73;30.55
19676;BME280;39539;52.202;9.876;2023-04-06T06:43:09;100989.03;;;22.05;31.78
19676;BME280;39539;52.202;9.876;2023-04-06T06:45:37;100977.53;;;23.28;31.42
19676;BME280;39539;52.202;9.876;2023-04-06T06:48:03;100979.47;;;23.51;30.27
19676;BME280;39539;52.202;9.876;2023-04-06T06:50:28;100983.28;;;23.21;29.91
19676;BME280;39539;52.202;9.876;2023-04-06T06:52:55;100987.00;;;23.89;29.47
19676;BME280;39539;52.202;9.876;2023-04-06T06:55:20;100990.63;;;23.79;30.37
19676;BME280;39539;52.202;9.876;2023-04-06T06:57:46;100988.63;;;24.57;29.00
19676;BME280;39539;52.202;9.876;2023-04-06T07:00:12;100985.81;;;25.19;28.59
19676;BME280;39539;52.202;9.876;2023-04-06T07:02:38;100987.34;;;25.25;27.76
19676;BME280;39539;52.202;9.876;2023-04-06T07:05:04;100971.97;;;23.09;28.62
19676;BME280;39539;52.202;9.876;2023-04-06T07:07:32;100986.34;;;21.85;30.56
19676;BME280;39539;52.202;9.876;2023-04-06T07:09:59;100983.06;;;22.68;29.83
19676;BME280;39539;52.202;9.876;2023-04-06T07:12:24;100980.75;;;23.88;27.17
19676;BME280;39539;52.202;9.876;2023-04-06T07:14:50;100972.06;;;25.10;27.44
19676;BME280;39539;52.202;9.876;2023-04-06T07:17:16;100966.81;;;26.71;26.99
19676;BME280;39539;52.202;9.876;2023-04-06T07:19:42;100967.53;;;27.44;25.92
19676;BME280;39539;52.202;9.876;2023-04-06T07:22:07;100983.53;;;27.68;25.37
19676;BME280;39539;52.202;9.876;2023-04-06T07:24:33;100974.97;;;26.20;27.04
19676;BME280;39539;52.202;9.876;2023-04-06T07:26:59;100979.91;;;25.17;29.53
19676;BME280;39539;52.202;9.876;2023-04-06T07:29:27;100988.34;;;26.95;28.82
19676;BME280;39539;52.202;9.876;2023-04-06T07:31:54;100979.88;;;27.41;26.83
19676;BME280;39539;52.202;9.876;2023-04-06T07:34:20;100968.47;;;27.17;26.78
19676;BME280;39539;52.202;9.876;2023-04-06T07:36:45;100983.03;;;28.72;25.57
19676;BME280;39539;52.202;9.876;2023-04-06T07:39:11;100981.09;;;28.81;24.15
19676;BME280;39539;52.202;9.876;2023-04-06T07:41:38;100985.63;;;27.71;24.01
19676;BME280;39539;52.202;9.876;2023-04-06T07:44:03;100988.81;;;28.53;25.23
19676;BME280;39539;52.202;9.876;2023-04-06T07:46:29;100977.41;;;28.02;24.04
19676;BME280;39539;52.202;9.876;2023-04-06T07:48:57;100986.09;;;28.87;23.31
19676;BME280;39539;52.202;9.876;2023-04-06T07:51:23;100972.56;;;28.56;23.56
19676;BME280;39539;52.202;9.876;2023-04-06T07:53:50;100984.00;;;29.02;23.14
19676;BME280;39539;52.202;9.876;2023-04-06T07:56:16;100983.03;;;29.06;23.55
19676;BME280;39539;52.202;9.876;2023-04-06T07:58:42;100967.91;;;28.83;23.73
19676;BME280;39539;52.202;9.876;2023-04-06T08:01:08;100973.47;;;29.86;22.99
19676;BME280;39539;52.202;9.876;2023-04-06T08:03:36;100967.56;;;30.05;22.65
19676;BME280;39539;52.202;9.876;2023-04-06T08:06:03;100976.47;;;30.31;21.89
19676;BME280;39539;52.202;9.876;2023-04-06T08:08:29;100984.66;;;29.72;22.08
19676;BME280;39539;52.202;9.876;2023-04-06T08:10:56;100974.94;;;30.13;22.74
19676;BME280;39539;52.202;9.876;2023-04-06T08:13:27;100979.50;;;28.62;22.93
19676;BME280;39539;52.202;9.876;2023-04-06T08:15:53;100973.19;;;28.62;22.93
19676;BME280;39539;52.202;9.876;2023-04-06T08:18:19;100979.78;;;28.87;23.48
19676;BME280;39539;52.202;9.876;2023-04-06T08:20:44;100989.31;;;29.07;23.10
19676;BME280;39539;52.202;9.876;2023-04-06T08:23:10;100971.69;;;28.30;23.12
19676;BME280;39539;52.202;9.876;2023-04-06T08:25:36;100976.09;;;29.18;23.47
19676;BME280;39539;52.202;9.876;2023-04-06T08:28:03;100964.63;;;28.29;23.04
19676;BME280;39539;52.202;9.876;2023-04-06T08:30:31;100973.63;;;28.38;24.33
19676;BME280;39539;52.202;9.876;2023-04-06T08:32:57;100978.41;;;30.01;23.35
19676;BME280;39539;52.202;9.876;2023-04-06T08:35:23;100975.94;;;29.23;23.08
19676;BME280;39539;52.202;9.876;2023-04-06T08:37:48;100971.44;;;28.75;23.52
19676;BME280;39539;52.202;9.876;2023-04-06T08:40:14;100955.69;;;28.54;23.22
19676;BME280;39539;52.202;9.876;2023-04-06T08:42:44;100955.53;;;28.68;23.31
19676;BME280;39539;52.202;9.876;2023-04-06T08:45:13;100955.16;;;29.22;23.38
19676;BME280;39539;52.202;9.876;2023-04-06T08:47:41;100951.47;;;28.83;22.77
19676;BME280;39539;52.202;9.876;2023-04-06T08:50:10;100946.88;;;26.48;23.62
19676;BME280;39539;52.202;9.876;2023-04-06T08:52:38;100940.78;;;26.01;25.40
19676;BME280;39539;52.202;9.876;2023-04-06T08:55:07;100960.53;;;26.84;24.88
19676;BME280;39539;52.202;9.876;2023-04-06T08:57:36;100976.97;;;28.09;23.99
19676;BME280;39539;52.202;9.876;2023-04-06T09:00:02;100960.16;;;28.50;23.49
19676;BME280;39539;52.202;9.876;2023-04-06T09:02:31;100966.59;;;28.80;23.86
19676;BME280;39539;52.202;9.876;2023-04-06T09:04:57;100967.59;;;28.93;21.99
19676;BME280;39539;52.202;9.876;2023-04-06T09:07:24;100926.34;;;25.72;23.38
19676;BME280;39539;52.202;9.876;2023-04-06T09:09:49;100967.13;;;27.99;23.49
19676;BME280;39539;52.202;9.876;2023-04-06T09:12:30;100953.09;;;27.83;23.68
19676;BME280;39539;52.202;9.876;2023-04-06T09:14:56;100926.94;;;27.06;22.82
19676;BME280;39539;52.202;9.876;2023-04-06T09:17:30;100933.78;;;25.67;23.34
19676;BME280;39539;52.202;9.876;2023-04-06T09:19:58;100957.59;;;26.80;24.82
19676;BME280;39539;52.202;9.876;2023-04-06T09:22:24;100935.84;;;26.03;23.94
19676;BME280;39539;52.202;9.876;2023-04-06T09:24:53;100956.84;;;26.66;24.14
19676;BME280;39539;52.202;9.876;2023-04-06T09:27:37;100957.69;;;26.53;23.43
19676;BME280;39539;52.202;9.876;2023-04-06T09:30:07;100961.31;;;27.52;22.90
19676;BME280;39539;52.202;9.876;2023-04-06T09:32:52;100954.56;;;27.04;23.73
19676;BME280;39539;52.202;9.876;2023-04-06T09:35:19;100958.78;;;27.10;23.23
19676;BME280;39539;52.202;9.876;2023-04-06T09:37:49;100948.00;;;27.28;23.64
19676;BME280;39539;52.202;9.876;2023-04-06T09:40:15;100942.91;;;26.90;24.45
19676;BME280;39539;52.202;9.876;2023-04-06T09:42:45;100910.66;;;23.66;25.95
19676;BME280;39539;52.202;9.876;2023-04-06T09:45:12;100938.22;;;24.83;26.38
19676;BME280;39539;52.202;9.876;2023-04-06T09:47:40;100933.25;;;24.10;27.18
19676;BME280;39539;52.202;9.876;2023-04-06T09:50:07;100950.25;;;24.39;27.02
19676;BME280;39539;52.202;9.876;2023-04-06T09:52:41;100941.81;;;24.41;26.76
19676;BME280;39539;52.202;9.876;2023-04-06T09:55:08;100938.84;;;24.18;25.87
19676;BME280;39539;52.202;9.876;2023-04-06T10:00:07;100929.84;;;23.99;26.66
19676;BME280;39539;52.202;9.876;2023-04-06T10:03:00;100932.53;;;24.23;25.57
19676;BME280;39539;52.202;9.876;2023-04-06T10:08:03;100932.78;;;24.27;25.43
19676;BME280;39539;52.202;9.876;2023-04-06T10:10:31;100919.50;;;23.53;26.14
19676;BME280;39539;52.202;9.876;2023-04-06T10:12:57;100930.91;;;22.86;25.84
19676;BME280;39539;52.202;9.876;2023-04-06T10:15:29;100920.75;;;22.68;26.95
19676;BME280;39539;52.202;9.876;2023-04-06T10:18:00;100941.81;;;23.45;27.73
19676;BME280;39539;52.202;9.876;2023-04-06T10:20:42;100931.66;;;22.53;27.05
19676;BME280;39539;52.202;9.876;2023-04-06T10:23:13;100920.66;;;21.53;28.01
19676;BME280;39539;52.202;9.876;2023-04-06T10:26:00;100934.41;;;21.83;28.46
19676;BME280;39539;52.202;9.876;2023-04-06T10:28:32;100916.88;;;19.84;30.44
19676;BME280;39539;52.202;9.876;2023-04-06T10:31:00;100925.31;;;19.18;30.51
19676;BME280;39539;52.202;9.876;2023-04-06T10:33:26;100917.59;;;18.18;32.01
19676;BME280;39539;52.202;9.876;2023-04-06T10:35:52;100909.47;;;17.53;32.42
19676;BME280;39539;52.202;9.876;2023-04-06T10:38:19;100895.06;;;16.46;36.12
19676;BME280;39539;52.202;9.876;2023-04-06T10:40:47;100910.91;;;16.19;35.42
19676;BME280;39539;52.202;9.876;2023-04-06T10:43:19;100918.19;;;15.94;34.76
19676;BME280;39539;52.202;9.876;2023-04-06T10:45:45;100931.72;;;15.88;36.54
19676;BME280;39539;52.202;9.876;2023-04-06T10:48:19;100927.88;;;14.83;38.51
19676;BME280;39539;52.202;9.876;2023-04-06T10:50:47;100942.03;;;15.14;38.45
19676;BME280;39539;52.202;9.876;2023-04-06T10:53:24;100947.44;;;15.37;37.80
19676;BME280;39539;52.202;9.876;2023-04-06T10:55:51;100942.44;;;15.41;38.49
19676;BME280;39539;52.202;9.876;2023-04-06T10:58:17;100945.53;;;15.14;36.97
19676;BME280;39539;52.202;9.876;2023-04-06T11:00:47;100936.53;;;14.97;37.71
19676;BME280;39539;52.202;9.876;2023-04-06T11:03:13;100960.38;;;15.29;36.79
19676;BME280;39539;52.202;9.876;2023-04-06T11:05:43;100960.69;;;15.20;37.59
19676;BME280;39539;52.202;9.876;2023-04-06T11:08:09;100956.00;;;15.04;36.34
19676;BME280;39539;52.202;9.876;2023-04-06T11:10:34;100956.88;;;14.86;36.95
19676;BME280;39539;52.202;9.876;2023-04-06T11:13:02;100945.56;;;14.72;37.05
19676;BME280;39539;52.202;9.876;2023-04-06T11:15:34;100966.44;;;14.94;39.18
19676;BME280;39539;52.202;9.876;2023-04-06T11:18:03;100964.53;;;14.82;37.64
19676;BME280;39539;52.202;9.876;2023-04-06T11:20:33;100955.84;;;14.87;39.60
19676;BME280;39539;52.202;9.876;2023-04-06T11:22:58;100962.47;;;14.85;37.65
19676;BME280;39539;52.202;9.876;2023-04-06T11:25:24;100957.09;;;14.85;37.73
19676;BME280;39539;52.202;9.876;2023-04-06T11:27:51;100959.09;;;14.59;39.15
19676;BME280;39539;52.202;9.876;2023-04-06T11:30:18;100947.81;;;14.38;37.36
19676;BME280;39539;52.202;9.876;2023-04-06T11:32:45;100961.56;;;14.42;38.65
19676;BME280;39539;52.202;9.876;2023-04-06T11:35:31;100969.66;;;14.54;38.50
19676;BME280;39539;52.202;9.876;2023-04-06T11:37:56;100955.84;;;14.20;36.84
19676;BME280;39539;52.202;9.876;2023-04-06T11:40:22;100954.81;;;14.21;36.89
19676;BME280;39539;52.202;9.876;2023-04-06T11:42:53;100951.97;;;13.98;38.13
19676;BME280;39539;52.202;9.876;2023-04-06T11:45:19;100934.63;;;13.88;38.56
19676;BME280;39539;52.202;9.876;2023-04-06T11:47:44;100948.00;;;14.07;38.31
19676;BME280;39539;52.202;9.876;2023-04-06T11:50:12;100948.13;;;13.93;38.71
19676;BME280;39539;52.202;9.876;2023-04-06T11:52:39;100948.88;;;14.01;38.46
19676;BME280;39539;52.202;9.876;2023-04-06T11:55:16;100944.13;;;13.84;37.47
19676;BME280;39539;52.202;9.876;2023-04-06T11:57:42;100943.19;;;13.54;37.90
19676;BME280;39539;52.202;9.876;2023-04-06T12:00:09;100941.69;;;13.58;38.29
19676;BME280;39539;52.202;9.876;2023-04-06T12:02:38;100941.88;;;13.81;40.83
19676;BME280;39539;52.202;9.876;2023-04-06T12:05:05;100931.78;;;13.65;38.87
19676;BME280;39539;52.202;9.876;2023-04-06T12:07:32;100939.34;;;13.68;39.41
19676;BME280;39539;52.202;9.876;2023-04-06T12:10:02;100937.16;;;13.58;37.50
19676;BME280;39539;52.202;9.876;2023-04-06T12:12:28;100945.88;;;13.72;41.21
19676;BME280;39539;52.202;9.876;2023-04-06T12:14:53;100937.94;;;13.84;39.98
19676;BME280;39539;52.202;9.876;2023-04-06T12:17:19;100940.84;;;13.82;38.64
19676;BME280;39539;52.202;9.876;2023-04-06T12:19:45;100932.84;;;13.82;39.72
19676;BME280;39539;52.202;9.876;2023-04-06T12:22:11;100933.31;;;13.73;38.57
19676;BME280;39539;52.202;9.876;2023-04-06T12:24:37;100928.41;;;13.51;38.39
19676;BME280;39539;52.202;9.876;2023-04-06T12:27:02;100939.94;;;13.70;40.17
19676;BME280;39539;52.202;9.876;2023-04-06T12:29:28;100930.38;;;13.81;39.63
19676;BME280;39539;52.202;9.876;2023-04-06T12:31:54;100936.63;;;13.93;40.20
19676;BME280;39539;52.202;9.876;2023-04-06T12:34:19;100928.47;;;13.88;39.51
19676;BME280;39539;52.202;9.876;2023-04-06T12:36:46;100921.09;;;13.83;39.98
19676;BME280;39539;52.202;9.876;2023-04-06T12:39:12;100917.25;;;13.79;38.87
19676;BME280;39539;52.202;9.876;2023-04-06T12:41:38;100914.50;;;13.86;40.25
19676;BME280;39539;52.202;9.876;2023-04-06T12:44:06;100914.41;;;13.92;39.88
19676;BME280;39539;52.202;9.876;2023-04-06T12:46:31;100917.16;;;13.86;39.11
19676;BME280;39539;52.202;9.876;2023-04-06T12:48:58;100914.41;;;13.74;40.35
19676;BME280;39539;52.202;9.876;2023-04-06T12:51:27;100914.69;;;13.66;40.54